sensor_id;sensor_type;location;lat;lon;timestamp;temperature;humidity
19019;DHT22;9642;50.842;4.348;2022-09-01T00:02:07;21.10;90.20
19019;DHT22;9642;50.842;4.348;2022-09-01T00:04:37;21.10;90.40
19019;DHT22;9642;50.842;4.348;2022-09-01T00:07:04;21.00;90.20
19019;DHT22;9642;50.842;4.348;2022-09-01T00:09:30;21.20;89.70
19019;DHT22;9642;50.842;4.348;2022-09-01T00:11:57;21.20;89.40
19019;DHT22;9642;50.842;4.348;2022-09-01T00:14:26;21.10;90.00
19019;DHT22;9642;50.842;4.348;2022-09-01T00:16:53;21.10;89.60
19019;DHT22;9642;50.842;4.348;2022-09-01T00:19:23;21.20;89.10
19019;DHT22;9642;50.842;4.348;2022-09-01T00:21:49;21.20;89.60
19019;DHT22;9642;50.842;4.348;2022-09-01T00:24:17;21.20;89.40
19019;DHT22;9642;50.842;4.348;2022-09-01T00:26:43;21.30;88.70
19019;DHT22;9642;50.842;4.348;2022-09-01T00:29:10;21.20;88.40
19019;DHT22;9642;50.842;4.348;2022-09-01T00:31:36;21.10;88.90
19019;DHT22;9642;50.842;4.348;2022-09-01T00:34:03;21.10;89.20
19019;DHT22;9642;50.842;4.348;2022-09-01T00:36:29;21.10;88.90
19019;DHT22;9642;50.842;4.348;2022-09-01T00:38:55;21.00;89.00
19019;DHT22;9642;50.842;4.348;2022-09-01T00:41:24;21.00;89.30
19019;DHT22;9642;50.842;4.348;2022-09-01T00:43:53;20.90;90.10
19019;DHT22;9642;50.842;4.348;2022-09-01T00:46:22;20.90;89.50
19019;DHT22;9642;50.842;4.348;2022-09-01T00:49:05;20.90;89.00
19019;DHT22;9642;50.842;4.348;2022-09-01T00:51:34;20.80;89.30
19019;DHT22;9642;50.842;4.348;2022-09-01T00:54:05;20.80;89.50
19019;DHT22;9642;50.842;4.348;2022-09-01T00:56:34;20.70;90.00
19019;DHT22;9642;50.842;4.348;2022-09-01T00:59:04;20.70;89.80
19019;DHT22;9642;50.842;4.348;2022-09-01T01:01:32;20.80;89.20
19019;DHT22;9642;50.842;4.348;2022-09-01T01:04:03;20.70;89.40
19019;DHT22;9642;50.842;4.348;2022-09-01T01:06:29;20.80;89.50
19019;DHT22;9642;50.842;4.348;2022-09-01T01:08:58;20.90;88.30
19019;DHT22;9642;50.842;4.348;2022-09-01T01:11:29;20.70;88.70
19019;DHT22;9642;50.842;4.348;2022-09-01T01:14:03;20.60;89.30
19019;DHT22;9642;50.842;4.348;2022-09-01T01:16:45;20.60;89.70
19019;DHT22;9642;50.842;4.348;2022-09-01T01:22:23;20.60;89.30
19019;DHT22;9642;50.842;4.348;2022-09-01T01:25:08;20.80;88.20
19019;DHT22;9642;50.842;4.348;2022-09-01T01:27:38;20.90;87.90
19019;DHT22;9642;50.842;4.348;2022-09-01T01:30:09;20.90;87.60
19019;DHT22;9642;50.842;4.348;2022-09-01T01:32:39;20.80;88.20
19019;DHT22;9642;50.842;4.348;2022-09-01T01:35:10;20.50;89.40
19019;DHT22;9642;50.842;4.348;2022-09-01T01:37:42;20.40;89.70
19019;DHT22;9642;50.842;4.348;2022-09-01T01:40:13;20.60;89.70
19019;DHT22;9642;50.842;4.348;2022-09-01T01:42:45;20.50;89.80
19019;DHT22;9642;50.842;4.348;2022-09-01T01:45:13;20.50;89.60
19019;DHT22;9642;50.842;4.348;2022-09-01T01:47:49;20.50;90.00
19019;DHT22;9642;50.842;4.348;2022-09-01T01:50:27;20.40;90.20
19019;DHT22;9642;50.842;4.348;2022-09-01T01:52:55;20.40;90.10
19019;DHT22;9642;50.842;4.348;2022-09-01T01:55:25;20.40;89.90
19019;DHT22;9642;50.842;4.348;2022-09-01T01:57:54;20.30;89.80
19019;DHT22;9642;50.842;4.348;2022-09-01T02:00:25;20.40;89.10
19019;DHT22;9642;50.842;4.348;2022-09-01T02:02:52;20.40;89.60
19019;DHT22;9642;50.842;4.348;2022-09-01T02:05:25;20.30;89.70
19019;DHT22;9642;50.842;4.348;2022-09-01T02:07:54;20.30;89.50
19019;DHT22;9642;50.842;4.348;2022-09-01T02:10:27;20.10;90.20
19019;DHT22;9642;50.842;4.348;2022-09-01T02:12:57;20.00;90.40
19019;DHT22;9642;50.842;4.348;2022-09-01T02:15:28;19.90;90.40
19019;DHT22;9642;50.842;4.348;2022-09-01T02:17:55;19.90;90.40
19019;DHT22;9642;50.842;4.348;2022-09-01T02:20:25;19.90;90.40
19019;DHT22;9642;50.842;4.348;2022-09-01T02:22:55;19.90;90.40
19019;DHT22;9642;50.842;4.348;2022-09-01T02:25:21;19.90;90.10
19019;DHT22;9642;50.842;4.348;2022-09-01T02:27:48;20.00;89.70
19019;DHT22;9642;50.842;4.348;2022-09-01T02:30:20;20.10;89.50
19019;DHT22;9642;50.842;4.348;2022-09-01T02:32:47;20.10;89.90
19019;DHT22;9642;50.842;4.348;2022-09-01T02:35:13;20.10;89.50
19019;DHT22;9642;50.842;4.348;2022-09-01T02:37:40;20.10;89.30
19019;DHT22;9642;50.842;4.348;2022-09-01T02:40:09;20.20;89.20
19019;DHT22;9642;50.842;4.348;2022-09-01T02:42:37;20.10;89.10
19019;DHT22;9642;50.842;4.348;2022-09-01T02:45:06;20.10;89.50
19019;DHT22;9642;50.842;4.348;2022-09-01T02:47:37;20.00;89.50
19019;DHT22;9642;50.842;4.348;2022-09-01T02:50:07;19.90;89.90
19019;DHT22;9642;50.842;4.348;2022-09-01T02:52:39;20.00;89.50
19019;DHT22;9642;50.842;4.348;2022-09-01T02:55:06;19.90;89.30
19019;DHT22;9642;50.842;4.348;2022-09-01T02:57:33;20.00;89.10
19019;DHT22;9642;50.842;4.348;2022-09-01T02:59:59;19.70;89.90
19019;DHT22;9642;50.842;4.348;2022-09-01T03:02:26;19.80;89.70
19019;DHT22;9642;50.842;4.348;2022-09-01T03:04:54;19.80;89.40
19019;DHT22;9642;50.842;4.348;2022-09-01T03:07:20;19.90;89.10
19019;DHT22;9642;50.842;4.348;2022-09-01T03:09:49;19.80;89.60
19019;DHT22;9642;50.842;4.348;2022-09-01T03:12:15;19.70;90.00
19019;DHT22;9642;50.842;4.348;2022-09-01T03:14:41;19.80;89.70
19019;DHT22;9642;50.842;4.348;2022-09-01T03:17:07;19.80;89.40
19019;DHT22;9642;50.842;4.348;2022-09-01T03:19:33;19.80;89.00
19019;DHT22;9642;50.842;4.348;2022-09-01T03:22:04;19.70;88.70
19019;DHT22;9642;50.842;4.348;2022-09-01T03:24:30;19.50;89.90
19019;DHT22;9642;50.842;4.348;2022-09-01T03:26:56;19.40;90.20
19019;DHT22;9642;50.842;4.348;2022-09-01T03:29:23;19.50;90.20
19019;DHT22;9642;50.842;4.348;2022-09-01T03:31:49;19.60;89.40
19019;DHT22;9642;50.842;4.348;2022-09-01T03:34:15;19.60;89.40
19019;DHT22;9642;50.842;4.348;2022-09-01T03:36:45;19.70;89.10
19019;DHT22;9642;50.842;4.348;2022-09-01T03:39:17;19.60;89.80
19019;DHT22;9642;50.842;4.348;2022-09-01T03:41:43;19.50;89.90
19019;DHT22;9642;50.842;4.348;2022-09-01T03:44:13;19.20;90.50
19019;DHT22;9642;50.842;4.348;2022-09-01T03:46:42;19.30;90.20
19019;DHT22;9642;50.842;4.348;2022-09-01T03:49:08;19.30;90.40
19019;DHT22;9642;50.842;4.348;2022-09-01T03:51:42;19.30;90.50
19019;DHT22;9642;50.842;4.348;2022-09-01T03:54:09;19.30;90.50
19019;DHT22;9642;50.842;4.348;2022-09-01T03:56:35;19.30;90.40
19019;DHT22;9642;50.842;4.348;2022-09-01T03:59:03;19.30;90.40
19019;DHT22;9642;50.842;4.348;2022-09-01T04:01:30;19.30;90.60
19019;DHT22;9642;50.842;4.348;2022-09-01T04:04:04;19.40;90.30
19019;DHT22;9642;50.842;4.348;2022-09-01T04:06:31;19.30;90.60
19019;DHT22;9642;50.842;4.348;2022-09-01T04:08:57;19.30;90.60
19019;DHT22;9642;50.842;4.348;2022-09-01T04:11:27;19.40;90.30
19019;DHT22;9642;50.842;4.348;2022-09-01T04:13:54;19.20;90.60
19019;DHT22;9642;50.842;4.348;2022-09-01T04:19:07;19.20;90.70
19019;DHT22;9642;50.842;4.348;2022-09-01T04:21:46;19.20;90.90
19019;DHT22;9642;50.842;4.348;2022-09-01T04:24:16;19.10;91.00
19019;DHT22;9642;50.842;4.348;2022-09-01T04:26:44;19.10;91.10
19019;DHT22;9642;50.842;4.348;2022-09-01T04:29:11;19.00;91.10
19019;DHT22;9642;50.842;4.348;2022-09-01T04:31:39;19.20;91.10
19019;DHT22;9642;50.842;4.348;2022-09-01T04:34:06;19.10;90.90
19019;DHT22;9642;50.842;4.348;2022-09-01T04:36:41;18.90;91.40
19019;DHT22;9642;50.842;4.348;2022-09-01T04:39:09;18.80;91.70
19019;DHT22;9642;50.842;4.348;2022-09-01T04:41:38;18.80;91.80
19019;DHT22;9642;50.842;4.348;2022-09-01T04:44:06;18.80;91.60
19019;DHT22;9642;50.842;4.348;2022-09-01T04:46:35;18.70;91.80
19019;DHT22;9642;50.842;4.348;2022-09-01T04:49:04;18.50;92.20
19019;DHT22;9642;50.842;4.348;2022-09-01T04:51:31;18.70;91.90
19019;DHT22;9642;50.842;4.348;2022-09-01T04:53:57;18.60;92.00
19019;DHT22;9642;50.842;4.348;2022-09-01T04:56:25;18.60;92.20
19019;DHT22;9642;50.842;4.348;2022-09-01T04:58:52;18.50;92.40
19019;DHT22;9642;50.842;4.348;2022-09-01T05:01:25;18.40;92.40
19019;DHT22;9642;50.842;4.348;2022-09-01T05:03:52;18.40;92.40
19019;DHT22;9642;50.842;4.348;2022-09-01T05:06:30;18.50;92.20
19019;DHT22;9642;50.842;4.348;2022-09-01T05:08:58;18.60;92.20
19019;DHT22;9642;50.842;4.348;2022-09-01T05:11:25;18.50;92.00
19019;DHT22;9642;50.842;4.348;2022-09-01T05:13:56;18.60;92.20
19019;DHT22;9642;50.842;4.348;2022-09-01T05:16:23;18.60;92.20
19019;DHT22;9642;50.842;4.348;2022-09-01T05:18:51;18.70;92.00
19019;DHT22;9642;50.842;4.348;2022-09-01T05:21:20;18.80;91.80
19019;DHT22;9642;50.842;4.348;2022-09-01T05:23:49;18.90;91.80
19019;DHT22;9642;50.842;4.348;2022-09-01T05:26:18;18.90;91.60
19019;DHT22;9642;50.842;4.348;2022-09-01T05:28:46;18.90;91.70
19019;DHT22;9642;50.842;4.348;2022-09-01T05:31:14;18.90;91.80
19019;DHT22;9642;50.842;4.348;2022-09-01T05:33:45;18.60;92.30
19019;DHT22;9642;50.842;4.348;2022-09-01T05:36:19;18.70;92.30
19019;DHT22;9642;50.842;4.348;2022-09-01T05:38:46;18.90;92.00
19019;DHT22;9642;50.842;4.348;2022-09-01T05:41:14;19.00;91.80
19019;DHT22;9642;50.842;4.348;2022-09-01T05:43:43;18.90;91.90
19019;DHT22;9642;50.842;4.348;2022-09-01T05:46:15;19.10;91.70
19019;DHT22;9642;50.842;4.348;2022-09-01T05:48:43;19.20;91.60
19019;DHT22;9642;50.842;4.348;2022-09-01T05:51:11;19.10;91.80
19019;DHT22;9642;50.842;4.348;2022-09-01T05:53:41;19.00;91.80
19019;DHT22;9642;50.842;4.348;2022-09-01T05:56:09;19.00;92.00
19019;DHT22;9642;50.842;4.348;2022-09-01T05:58:38;19.00;92.00
19019;DHT22;9642;50.842;4.348;2022-09-01T06:01:05;18.90;92.10
19019;DHT22;9642;50.842;4.348;2022-09-01T06:03:32;19.00;92.10
19019;DHT22;9642;50.842;4.348;2022-09-01T06:06:03;19.00;92.20
19019;DHT22;9642;50.842;4.348;2022-09-01T06:08:34;19.00;92.20
19019;DHT22;9642;50.842;4.348;2022-09-01T06:11:01;19.00;92.30
19019;DHT22;9642;50.842;4.348;2022-09-01T06:13:28;19.00;92.30
19019;DHT22;9642;50.842;4.348;2022-09-01T06:15:54;19.00;92.10
19019;DHT22;9642;50.842;4.348;2022-09-01T06:18:23;19.10;92.20
19019;DHT22;9642;50.842;4.348;2022-09-01T06:20:50;19.20;92.00
19019;DHT22;9642;50.842;4.348;2022-09-01T06:23:16;19.30;91.90
19019;DHT22;9642;50.842;4.348;2022-09-01T06:25:45;19.30;92.00
19019;DHT22;9642;50.842;4.348;2022-09-01T06:28:13;19.40;91.70
19019;DHT22;9642;50.842;4.348;2022-09-01T06:30:40;19.30;91.80
19019;DHT22;9642;50.842;4.348;2022-09-01T06:33:09;19.30;92.20
19019;DHT22;9642;50.842;4.348;2022-09-01T06:35:36;18.80;93.20
19019;DHT22;9642;50.842;4.348;2022-09-01T06:38:04;18.80;93.70
19019;DHT22;9642;50.842;4.348;2022-09-01T06:40:32;18.90;93.50
19019;DHT22;9642;50.842;4.348;2022-09-01T06:43:00;18.80;93.80
19019;DHT22;9642;50.842;4.348;2022-09-01T06:45:27;18.80;93.70
19019;DHT22;9642;50.842;4.348;2022-09-01T06:47:53;18.80;93.80
19019;DHT22;9642;50.842;4.348;2022-09-01T06:50:21;18.70;93.90
19019;DHT22;9642;50.842;4.348;2022-09-01T06:52:49;18.80;94.10
19019;DHT22;9642;50.842;4.348;2022-09-01T06:55:26;18.80;94.00
19019;DHT22;9642;50.842;4.348;2022-09-01T06:57:57;18.90;93.90
19019;DHT22;9642;50.842;4.348;2022-09-01T07:00:25;19.10;93.70
19019;DHT22;9642;50.842;4.348;2022-09-01T07:02:54;19.10;93.80
19019;DHT22;9642;50.842;4.348;2022-09-01T07:05:23;19.30;93.60
19019;DHT22;9642;50.842;4.348;2022-09-01T07:07:51;19.50;93.10
19019;DHT22;9642;50.842;4.348;2022-09-01T07:10:26;19.70;92.80
19019;DHT22;9642;50.842;4.348;2022-09-01T07:12:55;19.90;92.60
19019;DHT22;9642;50.842;4.348;2022-09-01T07:15:24;19.80;92.70
19019;DHT22;9642;50.842;4.348;2022-09-01T07:17:56;19.70;92.90
19019;DHT22;9642;50.842;4.348;2022-09-01T07:20:26;19.70;93.10
19019;DHT22;9642;50.842;4.348;2022-09-01T07:22:55;19.70;93.20
19019;DHT22;9642;50.842;4.348;2022-09-01T07:25:21;19.80;92.90
19019;DHT22;9642;50.842;4.348;2022-09-01T07:27:49;19.70;93.20
19019;DHT22;9642;50.842;4.348;2022-09-01T07:30:17;19.80;93.10
19019;DHT22;9642;50.842;4.348;2022-09-01T07:32:44;20.00;92.80
19019;DHT22;9642;50.842;4.348;2022-09-01T07:35:11;20.20;92.60
19019;DHT22;9642;50.842;4.348;2022-09-01T07:37:37;20.10;92.60
19019;DHT22;9642;50.842;4.348;2022-09-01T07:40:07;20.50;92.00
19019;DHT22;9642;50.842;4.348;2022-09-01T07:42:36;20.70;91.80
19019;DHT22;9642;50.842;4.348;2022-09-01T07:45:09;20.70;91.60
19019;DHT22;9642;50.842;4.348;2022-09-01T07:47:37;20.50;91.80
19019;DHT22;9642;50.842;4.348;2022-09-01T07:50:07;20.30;92.20
19019;DHT22;9642;50.842;4.348;2022-09-01T07:52:35;20.20;92.50
19019;DHT22;9642;50.842;4.348;2022-09-01T07:55:15;20.20;92.70
19019;DHT22;9642;50.842;4.348;2022-09-01T07:57:43;20.40;92.50
19019;DHT22;9642;50.842;4.348;2022-09-01T08:00:13;20.70;91.80
19019;DHT22;9642;50.842;4.348;2022-09-01T08:02:40;20.50;92.30
19019;DHT22;9642;50.842;4.348;2022-09-01T08:05:12;20.50;92.30
19019;DHT22;9642;50.842;4.348;2022-09-01T08:07:38;20.90;91.80
19019;DHT22;9642;50.842;4.348;2022-09-01T08:10:07;21.00;91.50
19019;DHT22;9642;50.842;4.348;2022-09-01T08:12:35;21.30;91.20
19019;DHT22;9642;50.842;4.348;2022-09-01T08:15:02;21.40;90.70
19019;DHT22;9642;50.842;4.348;2022-09-01T08:17:30;21.60;90.40
19019;DHT22;9642;50.842;4.348;2022-09-01T08:19:56;21.80;90.00
19019;DHT22;9642;50.842;4.348;2022-09-01T08:22:24;21.70;90.10
19019;DHT22;9642;50.842;4.348;2022-09-01T08:24:51;21.70;90.20
19019;DHT22;9642;50.842;4.348;2022-09-01T08:27:18;21.70;90.30
19019;DHT22;9642;50.842;4.348;2022-09-01T08:29:44;21.80;90.00
19019;DHT22;9642;50.842;4.348;2022-09-01T08:32:10;22.00;89.30
19019;DHT22;9642;50.842;4.348;2022-09-01T08:34:37;22.00;90.00
19019;DHT22;9642;50.842;4.348;2022-09-01T08:37:06;22.20;88.90
19019;DHT22;9642;50.842;4.348;2022-09-01T08:39:32;22.40;88.40
19019;DHT22;9642;50.842;4.348;2022-09-01T08:44:40;22.80;86.40
19019;DHT22;9642;50.842;4.348;2022-09-01T08:47:13;23.00;85.80
19019;DHT22;9642;50.842;4.348;2022-09-01T08:49:42;22.80;86.50
19019;DHT22;9642;50.842;4.348;2022-09-01T08:52:33;22.40;87.90
19019;DHT22;9642;50.842;4.348;2022-09-01T08:55:18;22.10;89.00
19019;DHT22;9642;50.842;4.348;2022-09-01T08:57:47;22.20;88.60
19019;DHT22;9642;50.842;4.348;2022-09-01T09:00:29;22.40;87.80
19019;DHT22;9642;50.842;4.348;2022-09-01T09:03:16;22.50;87.70
19019;DHT22;9642;50.842;4.348;2022-09-01T09:06:10;22.80;86.90
19019;DHT22;9642;50.842;4.348;2022-09-01T09:16:44;23.10;85.50
19019;DHT22;9642;50.842;4.348;2022-09-01T09:21:46;23.50;84.30
19019;DHT22;9642;50.842;4.348;2022-09-01T09:29:57;27.40;70.40
19019;DHT22;9642;50.842;4.348;2022-09-01T09:35:45;30.60;62.80
19019;DHT22;9642;50.842;4.348;2022-09-01T09:40:59;31.90;58.80
19019;DHT22;9642;50.842;4.348;2022-09-01T09:43:27;33.00;55.90
19019;DHT22;9642;50.842;4.348;2022-09-01T09:51:49;34.10;52.30
19019;DHT22;9642;50.842;4.348;2022-09-01T09:57:26;33.60;51.70
19019;DHT22;9642;50.842;4.348;2022-09-01T10:00:09;31.20;56.00
19019;DHT22;9642;50.842;4.348;2022-09-01T10:02:42;30.10;57.90
19019;DHT22;9642;50.842;4.348;2022-09-01T10:08:01;33.10;52.10
19019;DHT22;9642;50.842;4.348;2022-09-01T10:10:47;34.90;48.10
19019;DHT22;9642;50.842;4.348;2022-09-01T10:13:17;35.20;46.70
19019;DHT22;9642;50.842;4.348;2022-09-01T10:15:51;34.30;47.60
19019;DHT22;9642;50.842;4.348;2022-09-01T10:18:22;33.80;48.00
19019;DHT22;9642;50.842;4.348;2022-09-01T10:21:12;33.40;49.10
19019;DHT22;9642;50.842;4.348;2022-09-01T10:23:40;33.30;48.20
19019;DHT22;9642;50.842;4.348;2022-09-01T10:28:45;30.50;53.10
19019;DHT22;9642;50.842;4.348;2022-09-01T10:31:13;29.30;54.30
19019;DHT22;9642;50.842;4.348;2022-09-01T10:33:40;28.30;55.50
19019;DHT22;9642;50.842;4.348;2022-09-01T10:36:06;29.00;55.40
19019;DHT22;9642;50.842;4.348;2022-09-01T10:38:33;29.40;55.20
19019;DHT22;9642;50.842;4.348;2022-09-01T10:40:59;31.20;52.00
19019;DHT22;9642;50.842;4.348;2022-09-01T10:48:58;31.40;50.50
19019;DHT22;9642;50.842;4.348;2022-09-01T10:53:51;31.60;50.10
19019;DHT22;9642;50.842;4.348;2022-09-01T10:56:36;32.60;48.70
19019;DHT22;9642;50.842;4.348;2022-09-01T11:06:54;30.60;50.90
19019;DHT22;9642;50.842;4.348;2022-09-01T11:09:27;31.50;50.30
19019;DHT22;9642;50.842;4.348;2022-09-01T11:14:59;31.20;50.70
19019;DHT22;9642;50.842;4.348;2022-09-01T11:17:31;31.70;50.00
19019;DHT22;9642;50.842;4.348;2022-09-01T11:20:30;31.70;49.50
19019;DHT22;9642;50.842;4.348;2022-09-01T11:31:00;33.50;45.90
19019;DHT22;9642;50.842;4.348;2022-09-01T11:36:23;34.30;44.90
19019;DHT22;9642;50.842;4.348;2022-09-01T11:38:55;33.00;45.60
19019;DHT22;9642;50.842;4.348;2022-09-01T11:44:41;33.30;46.30
19019;DHT22;9642;50.842;4.348;2022-09-01T11:47:20;33.70;45.10
19019;DHT22;9642;50.842;4.348;2022-09-01T11:52:53;32.60;45.80
19019;DHT22;9642;50.842;4.348;2022-09-01T11:55:43;30.00;49.40
19019;DHT22;9642;50.842;4.348;2022-09-01T12:00:57;30.70;50.10
19019;DHT22;9642;50.842;4.348;2022-09-01T12:03:36;31.50;48.50
19019;DHT22;9642;50.842;4.348;2022-09-01T12:06:04;31.90;47.90
19019;DHT22;9642;50.842;4.348;2022-09-01T12:08:33;31.90;47.20
19019;DHT22;9642;50.842;4.348;2022-09-01T12:11:09;32.10;47.10
19019;DHT22;9642;50.842;4.348;2022-09-01T12:13:36;31.30;48.00
19019;DHT22;9642;50.842;4.348;2022-09-01T12:16:06;30.60;49.00
19019;DHT22;9642;50.842;4.348;2022-09-01T12:18:43;31.10;49.10
19019;DHT22;9642;50.842;4.348;2022-09-01T12:21:37;32.20;47.30
19019;DHT22;9642;50.842;4.348;2022-09-01T12:26:44;30.80;48.30
19019;DHT22;9642;50.842;4.348;2022-09-01T12:29:11;30.10;50.40
19019;DHT22;9642;50.842;4.348;2022-09-01T12:31:46;30.80;49.80
19019;DHT22;9642;50.842;4.348;2022-09-01T12:34:35;31.00;49.20
19019;DHT22;9642;50.842;4.348;2022-09-01T12:37:22;30.90;49.10
19019;DHT22;9642;50.842;4.348;2022-09-01T12:39:54;30.90;49.30
19019;DHT22;9642;50.842;4.348;2022-09-01T12:42:31;29.80;50.90
19019;DHT22;9642;50.842;4.348;2022-09-01T12:45:07;29.70;51.30
19019;DHT22;9642;50.842;4.348;2022-09-01T12:52:27;30.60;49.30
19019;DHT22;9642;50.842;4.348;2022-09-01T12:57:34;30.20;50.40
19019;DHT22;9642;50.842;4.348;2022-09-01T13:02:39;29.90;50.20
19019;DHT22;9642;50.842;4.348;2022-09-01T13:07:54;29.40;51.20
19019;DHT22;9642;50.842;4.348;2022-09-01T13:10:22;28.20;53.40
19019;DHT22;9642;50.842;4.348;2022-09-01T13:12:50;27.50;54.80
19019;DHT22;9642;50.842;4.348;2022-09-01T13:15:17;27.10;55.30
19019;DHT22;9642;50.842;4.348;2022-09-01T13:17:43;27.20;55.70
19019;DHT22;9642;50.842;4.348;2022-09-01T13:20:09;27.50;55.20
19019;DHT22;9642;50.842;4.348;2022-09-01T13:22:37;27.90;55.10
19019;DHT22;9642;50.842;4.348;2022-09-01T13:25:06;28.10;54.10
19019;DHT22;9642;50.842;4.348;2022-09-01T13:27:36;28.40;53.90
19019;DHT22;9642;50.842;4.348;2022-09-01T13:30:06;28.30;54.00
19019;DHT22;9642;50.842;4.348;2022-09-01T13:32:32;28.00;54.20
19019;DHT22;9642;50.842;4.348;2022-09-01T13:34:58;28.00;54.50
19019;DHT22;9642;50.842;4.348;2022-09-01T13:37:24;28.00;54.10
19019;DHT22;9642;50.842;4.348;2022-09-01T13:39:50;27.80;54.30
19019;DHT22;9642;50.842;4.348;2022-09-01T13:42:16;27.90;54.30
19019;DHT22;9642;50.842;4.348;2022-09-01T13:44:58;28.00;54.30
19019;DHT22;9642;50.842;4.348;2022-09-01T13:47:33;28.10;53.90
19019;DHT22;9642;50.842;4.348;2022-09-01T13:49:59;27.50;54.80
19019;DHT22;9642;50.842;4.348;2022-09-01T13:52:25;26.90;55.50
19019;DHT22;9642;50.842;4.348;2022-09-01T13:54:51;26.70;55.80
19019;DHT22;9642;50.842;4.348;2022-09-01T13:57:17;27.10;55.50
19019;DHT22;9642;50.842;4.348;2022-09-01T13:59:43;27.40;54.90
19019;DHT22;9642;50.842;4.348;2022-09-01T14:02:09;27.30;55.30
19019;DHT22;9642;50.842;4.348;2022-09-01T14:04:36;27.30;54.90
19019;DHT22;9642;50.842;4.348;2022-09-01T14:07:01;27.50;55.00
19019;DHT22;9642;50.842;4.348;2022-09-01T14:09:27;27.40;55.00
19019;DHT22;9642;50.842;4.348;2022-09-01T14:11:54;27.60;54.90
19019;DHT22;9642;50.842;4.348;2022-09-01T14:14:20;27.90;54.30
19019;DHT22;9642;50.842;4.348;2022-09-01T14:16:59;28.30;53.50
19019;DHT22;9642;50.842;4.348;2022-09-01T14:19:28;28.50;53.00
19019;DHT22;9642;50.842;4.348;2022-09-01T14:21:55;28.60;53.00
19019;DHT22;9642;50.842;4.348;2022-09-01T14:24:22;28.30;53.40
19019;DHT22;9642;50.842;4.348;2022-09-01T14:26:48;28.30;53.20
19019;DHT22;9642;50.842;4.348;2022-09-01T14:29:15;27.90;53.40
19019;DHT22;9642;50.842;4.348;2022-09-01T14:31:41;27.90;54.00
19019;DHT22;9642;50.842;4.348;2022-09-01T14:34:09;27.90;53.30
19019;DHT22;9642;50.842;4.348;2022-09-01T14:36:35;27.90;53.20
19019;DHT22;9642;50.842;4.348;2022-09-01T14:39:01;28.00;52.80
19019;DHT22;9642;50.842;4.348;2022-09-01T14:41:27;28.20;52.40
19019;DHT22;9642;50.842;4.348;2022-09-01T14:43:54;28.20;53.20
19019;DHT22;9642;50.842;4.348;2022-09-01T14:46:23;28.10;52.30
19019;DHT22;9642;50.842;4.348;2022-09-01T14:48:50;28.20;52.80
19019;DHT22;9642;50.842;4.348;2022-09-01T14:51:25;28.40;52.60
19019;DHT22;9642;50.842;4.348;2022-09-01T14:53:52;28.40;52.60
19019;DHT22;9642;50.842;4.348;2022-09-01T14:56:19;28.50;52.30
19019;DHT22;9642;50.842;4.348;2022-09-01T14:58:46;28.60;52.00
19019;DHT22;9642;50.842;4.348;2022-09-01T15:01:18;28.50;52.00
19019;DHT22;9642;50.842;4.348;2022-09-01T15:03:46;28.40;52.90
19019;DHT22;9642;50.842;4.348;2022-09-01T15:06:14;28.00;52.60
19019;DHT22;9642;50.842;4.348;2022-09-01T15:08:41;27.40;53.70
19019;DHT22;9642;50.842;4.348;2022-09-01T15:11:13;27.50;53.50
19019;DHT22;9642;50.842;4.348;2022-09-01T15:13:40;27.50;53.20
19019;DHT22;9642;50.842;4.348;2022-09-01T15:16:19;27.40;53.50
19019;DHT22;9642;50.842;4.348;2022-09-01T15:18:46;27.30;53.50
19019;DHT22;9642;50.842;4.348;2022-09-01T15:21:29;27.00;54.20
19019;DHT22;9642;50.842;4.348;2022-09-01T15:23:59;27.10;54.00
19019;DHT22;9642;50.842;4.348;2022-09-01T15:26:25;27.00;54.00
19019;DHT22;9642;50.842;4.348;2022-09-01T15:28:51;27.00;54.10
19019;DHT22;9642;50.842;4.348;2022-09-01T15:31:20;27.20;53.30
19019;DHT22;9642;50.842;4.348;2022-09-01T15:33:47;27.40;53.20
19019;DHT22;9642;50.842;4.348;2022-09-01T15:36:18;27.60;52.50
19019;DHT22;9642;50.842;4.348;2022-09-01T15:38:45;27.40;52.70
19019;DHT22;9642;50.842;4.348;2022-09-01T15:41:16;27.50;52.20
19019;DHT22;9642;50.842;4.348;2022-09-01T15:43:42;27.30;52.40
19019;DHT22;9642;50.842;4.348;2022-09-01T15:46:08;27.30;52.50
19019;DHT22;9642;50.842;4.348;2022-09-01T15:48:34;27.00;52.60
19019;DHT22;9642;50.842;4.348;2022-09-01T15:53:45;27.00;52.20
19019;DHT22;9642;50.842;4.348;2022-09-01T15:56:11;26.70;52.60
19019;DHT22;9642;50.842;4.348;2022-09-01T15:58:36;26.50;52.90
19019;DHT22;9642;50.842;4.348;2022-09-01T16:01:02;26.40;52.90
19019;DHT22;9642;50.842;4.348;2022-09-01T16:03:28;26.60;52.70
19019;DHT22;9642;50.842;4.348;2022-09-01T16:05:59;26.40;52.70
19019;DHT22;9642;50.842;4.348;2022-09-01T16:08:25;26.20;53.20
19019;DHT22;9642;50.842;4.348;2022-09-01T16:10:52;26.30;53.20
19019;DHT22;9642;50.842;4.348;2022-09-01T16:13:19;26.60;52.60
19019;DHT22;9642;50.842;4.348;2022-09-01T16:19:00;26.60;52.20
19019;DHT22;9642;50.842;4.348;2022-09-01T16:21:27;26.70;52.10
19019;DHT22;9642;50.842;4.348;2022-09-01T16:23:55;26.80;51.90
19019;DHT22;9642;50.842;4.348;2022-09-01T16:26:21;26.70;51.70
19019;DHT22;9642;50.842;4.348;2022-09-01T16:28:55;26.50;52.10
19019;DHT22;9642;50.842;4.348;2022-09-01T16:31:25;26.10;52.70
19019;DHT22;9642;50.842;4.348;2022-09-01T16:33:54;26.00;53.30
19019;DHT22;9642;50.842;4.348;2022-09-01T16:36:42;26.00;53.80
19019;DHT22;9642;50.842;4.348;2022-09-01T16:39:20;26.00;53.30
19019;DHT22;9642;50.842;4.348;2022-09-01T16:47:43;25.80;53.00
19019;DHT22;9642;50.842;4.348;2022-09-01T16:55:42;26.00;53.50
19019;DHT22;9642;50.842;4.348;2022-09-01T16:58:43;26.10;53.30
19019;DHT22;9642;50.842;4.348;2022-09-01T17:04:02;26.30;53.10
19019;DHT22;9642;50.842;4.348;2022-09-01T17:06:35;26.30;53.10
19019;DHT22;9642;50.842;4.348;2022-09-01T17:14:46;26.20;53.20
19019;DHT22;9642;50.842;4.348;2022-09-01T17:17:22;26.00;53.50
19019;DHT22;9642;50.842;4.348;2022-09-01T17:19:48;25.90;53.80
19019;DHT22;9642;50.842;4.348;2022-09-01T17:22:18;25.90;53.60
19019;DHT22;9642;50.842;4.348;2022-09-01T17:24:48;25.90;53.60
19019;DHT22;9642;50.842;4.348;2022-09-01T17:29:52;25.90;53.70
19019;DHT22;9642;50.842;4.348;2022-09-01T17:32:54;25.90;53.50
19019;DHT22;9642;50.842;4.348;2022-09-01T17:35:38;25.90;53.70
19019;DHT22;9642;50.842;4.348;2022-09-01T17:38:28;26.00;53.80
19019;DHT22;9642;50.842;4.348;2022-09-01T17:56:03;25.70;54.10
19019;DHT22;9642;50.842;4.348;2022-09-01T18:01:02;25.60;54.40
19019;DHT22;9642;50.842;4.348;2022-09-01T18:09:44;25.60;54.30
19019;DHT22;9642;50.842;4.348;2022-09-01T18:12:16;25.50;54.30
19019;DHT22;9642;50.842;4.348;2022-09-01T18:15:10;25.60;54.50
19019;DHT22;9642;50.842;4.348;2022-09-01T18:17:59;25.40;54.80
19019;DHT22;9642;50.842;4.348;2022-09-01T18:20:32;25.40;54.90
19019;DHT22;9642;50.842;4.348;2022-09-01T18:28:03;25.30;55.90
19019;DHT22;9642;50.842;4.348;2022-09-01T18:33:37;25.40;55.40
19019;DHT22;9642;50.842;4.348;2022-09-01T18:36:22;25.40;55.30
19019;DHT22;9642;50.842;4.348;2022-09-01T18:47:14;25.20;55.80
19019;DHT22;9642;50.842;4.348;2022-09-01T18:49:59;25.10;55.80
19019;DHT22;9642;50.842;4.348;2022-09-01T18:55:28;25.00;56.30